Time;durP1;ratioP1;P1;durP2;ratioP2;P2;SDS_P1;SDS_P2;PMS_P1;PMS_P2;Temp;Humidity;BMP_temperature;BMP_pressure;BME280_temperature;BME280_humidity;BME280_pressure;Samples;Min_cycle;Max_cycle;Signal;HPM_P1;HPM_P2
2021/01/08 00:00:10;;;;;;;20.17;9.80;;;;;;;;;;10418581;28;20221;-73
2021/01/08 00:05:12;;;;;;;15.50;6.70;;;;;;;;;;10409052;28;20252;-73
2021/01/08 00:10:15;;;;;;;17.10;8.10;;;;;;;;;;10431868;28;20198;-73
2021/01/08 00:15:16;;;;;;;13.80;7.53;;;;;;;;;;10431937;28;20217;-74
2021/01/08 00:20:18;;;;;;;17.93;9.87;;;;;;;;;;10425201;28;20709;-73
2021/01/08 00:25:20;;;;;;;18.57;10.07;;;;;;;;;;10450996;28;20216;-73
2021/01/08 00:30:22;;;;;;;16.73;9.30;;;;;;;;;;10435334;28;20244;-73
2021/01/08 00:35:24;;;;;;;10.27;4.67;;;;;;;;;;10432202;28;20720;-73
2021/01/08 00:40:26;;;;;;;18.40;8.77;;;;;;;;;;10437642;28;20705;-73
2021/01/08 00:45:28;;;;;;;19.50;10.07;;;;;;;;;;10432826;28;20700;-73
2021/01/08 00:50:29;;;;;;;19.23;10.37;;;;;;;;;;10433718;28;20189;-73
2021/01/08 00:55:32;;;;;;;15.20;5.53;;;;;;;;;;10414041;28;20685;-73
2021/01/08 01:00:33;;;;;;;14.77;7.63;;;;;;;;;;10433040;28;20275;-72
2021/01/08 01:05:35;;;;;;;16.80;8.27;;;;;;;;;;10432516;28;20225;-72
2021/01/08 01:10:37;;;;;;;11.97;4.73;;;;;;;;;;10445131;28;20621;-72
2021/01/08 01:15:39;;;;;;;11.00;4.53;;;;;;;;;;10434169;28;20649;-72
2021/01/08 01:20:41;;;;;;;18.70;7.80;;;;;;;;;;10435065;28;20208;-74
2021/01/08 01:25:44;;;;;;;13.77;7.60;;;;;;;;;;10452164;28;20234;-74
2021/01/08 01:30:46;;;;;;;20.73;10.03;;;;;;;;;;10425409;28;20194;-73
2021/01/08 01:35:47;;;;;;;17.57;9.53;;;;;;;;;;10439978;28;20245;-73
2021/01/08 01:40:49;;;;;;;17.60;8.67;;;;;;;;;;10436104;28;20395;-73
2021/01/08 01:45:51;;;;;;;18.07;8.27;;;;;;;;;;10431120;28;20690;-74
2021/01/08 01:50:53;;;;;;;18.87;9.33;;;;;;;;;;10436563;28;20189;-75
2021/01/08 01:55:55;;;;;;;19.23;9.37;;;;;;;;;;10443597;28;20721;-73
2021/01/08 02:00:57;;;;;;;16.50;9.07;;;;;;;;;;10436746;28;20216;-75
2021/01/08 02:06:04;;;;;;;12.20;5.57;;;;;;;;;;10433058;28;20224;-74
2021/01/08 02:11:08;;;;;;;19.83;9.83;;;;;;;;;;10430558;28;20632;-75
2021/01/08 02:16:12;;;;;;;19.80;9.27;;;;;;;;;;10435701;28;20621;-73
2021/01/08 02:21:16;;;;;;;20.03;8.63;;;;;;;;;;10426320;28;20271;-73
2021/01/08 02:26:19;;;;;;;18.37;9.57;;;;;;;;;;10436854;28;20228;-72
2021/01/08 02:31:21;;;;;;;17.23;8.23;;;;;;;;;;10427208;28;20384;-73
2021/01/08 02:36:23;;;;;;;18.63;8.47;;;;;;;;;;10441676;28;20549;-73
2021/01/08 02:41:26;;;;;;;17.87;9.47;;;;;;;;;;10447323;28;20217;-76
2021/01/08 02:46:27;;;;;;;17.93;9.77;;;;;;;;;;10427602;28;20240;-74
2021/01/08 02:51:29;;;;;;;18.70;9.37;;;;;;;;;;10440478;28;20581;-74
2021/01/08 02:56:33;;;;;;;17.17;8.73;;;;;;;;;;10422704;28;20214;-75
2021/01/08 03:01:35;;;;;;;18.63;10.03;;;;;;;;;;10431861;28;20579;-74
2021/01/08 03:06:38;;;;;;;18.87;10.17;;;;;;;;;;10432594;28;20312;-74
2021/01/08 03:11:41;;;;;;;18.33;8.27;;;;;;;;;;10424557;28;20186;-73
2021/01/08 03:16:42;;;;;;;20.20;10.73;;;;;;;;;;10413611;28;20225;-74
2021/01/08 03:21:44;;;;;;;18.07;10.13;;;;;;;;;;10436602;28;20213;-73
2021/01/08 03:26:46;;;;;;;20.00;7.83;;;;;;;;;;10408116;28;20287;-74
2021/01/08 03:31:48;;;;;;;17.03;9.40;;;;;;;;;;10435972;28;20579;-74
2021/01/08 03:36:50;;;;;;;19.87;9.97;;;;;;;;;;10436312;28;20580;-73
2021/01/08 03:41:52;;;;;;;13.93;7.10;;;;;;;;;;10433047;28;20218;-74
2021/01/08 03:46:54;;;;;;;14.13;6.83;;;;;;;;;;10423182;28;20312;-73
2021/01/08 03:51:55;;;;;;;19.80;9.90;;;;;;;;;;10433356;28;20203;-73
2021/01/08 03:56:58;;;;;;;17.77;9.37;;;;;;;;;;10431818;28;20291;-72
2021/01/08 04:02:00;;;;;;;19.90;7.93;;;;;;;;;;10433202;28;20714;-74
2021/01/08 04:07:04;;;;;;;15.40;6.77;;;;;;;;;;10410898;28;20749;-73
2021/01/08 04:44:42;;;;;;;19.87;9.27;;;;;;;;;;10428250;28;20188;-74
2021/01/08 04:49:44;;;;;;;20.77;11.57;;;;;;;;;;10433929;28;20221;-73
2021/01/08 04:54:46;;;;;;;21.40;10.97;;;;;;;;;;10433623;28;20276;-74
2021/01/08 04:59:49;;;;;;;22.40;11.00;;;;;;;;;;10419660;28;20329;-73
2021/01/08 05:04:51;;;;;;;17.13;5.97;;;;;;;;;;10427513;28;20232;-73
2021/01/08 05:09:52;;;;;;;13.87;6.63;;;;;;;;;;10425678;28;20229;-72
2021/01/08 05:14:55;;;;;;;20.20;7.73;;;;;;;;;;10444908;28;20193;-73
2021/01/08 05:19:57;;;;;;;19.50;8.70;;;;;;;;;;10435435;28;20303;-73
2021/01/08 05:25:04;;;;;;;21.67;11.77;;;;;;;;;;10442260;28;20497;-73
2021/01/08 05:30:17;;;;;;;18.77;8.90;;;;;;;;;;10440509;28;20193;-72
2021/01/08 05:35:19;;;;;;;21.97;11.40;;;;;;;;;;10424844;28;20778;-74
2021/01/08 05:40:24;;;;;;;21.33;10.93;;;;;;;;;;10433933;28;20217;-74
2021/01/08 05:45:27;;;;;;;20.23;10.43;;;;;;;;;;10431159;28;20682;-73
2021/01/08 05:50:29;;;;;;;21.17;11.03;;;;;;;;;;10433137;28;20193;-74
2021/01/08 05:55:34;;;;;;;20.03;10.17;;;;;;;;;;10440883;28;20258;-73
2021/01/08 06:00:36;;;;;;;21.07;10.27;;;;;;;;;;10442206;28;20291;-73
2021/01/08 06:05:38;;;;;;;22.37;10.50;;;;;;;;;;10440967;28;20288;-75
2021/01/08 06:10:43;;;;;;;13.67;6.37;;;;;;;;;;10432952;28;20216;-74
2021/01/08 06:15:46;;;;;;;25.37;11.97;;;;;;;;;;10417848;28;20217;-73
2021/01/08 06:20:49;;;;;;;20.40;9.20;;;;;;;;;;10429380;28;20237;-73
2021/01/08 06:25:51;;;;;;;18.93;8.83;;;;;;;;;;10417885;28;20267;-73
2021/01/08 06:30:56;;;;;;;19.90;9.87;;;;;;;;;;10414455;28;20285;-73
2021/01/08 06:36:06;;;;;;;20.53;9.70;;;;;;;;;;10432815;28;20708;-71
2021/01/08 06:41:10;;;;;;;21.53;11.20;;;;;;;;;;10450768;28;20217;-73
2021/01/08 06:46:16;;;;;;;19.30;8.80;;;;;;;;;;10454709;28;20217;-73
2021/01/08 06:51:24;;;;;;;19.37;9.50;;;;;;;;;;10435622;28;20193;-73
2021/01/08 06:56:35;;;;;;;20.53;9.80;;;;;;;;;;10434987;28;20217;-73
2021/01/08 07:01:41;;;;;;;20.17;10.33;;;;;;;;;;10434318;28;20264;-73
2021/01/08 07:06:43;;;;;;;12.00;4.90;;;;;;;;;;10422173;28;20217;-73
2021/01/08 07:11:52;;;;;;;19.13;9.93;;;;;;;;;;10417127;28;20201;-71
2021/01/08 07:16:55;;;;;;;17.20;7.73;;;;;;;;;;10425881;28;20292;-73
2021/01/08 07:21:59;;;;;;;13.33;5.40;;;;;;;;;;10418775;28;20228;-74
2021/01/08 07:27:13;;;;;;;17.73;8.70;;;;;;;;;;10420323;28;20223;-73
2021/01/08 07:32:18;;;;;;;16.43;8.47;;;;;;;;;;10403688;28;20727;-73
2021/01/08 07:37:19;;;;;;;15.80;7.53;;;;;;;;;;10412280;28;20224;-73
2021/01/08 07:42:31;;;;;;;18.00;7.97;;;;;;;;;;10431620;28;20205;-73
2021/01/08 07:47:37;;;;;;;14.70;7.73;;;;;;;;;;10413305;28;20217;-72
2021/01/08 07:52:41;;;;;;;14.53;7.20;;;;;;;;;;10428551;28;20201;-74
2021/01/08 07:58:04;;;;;;;14.40;7.50;;;;;;;;;;10435964;28;20855;-73
2021/01/08 08:03:06;;;;;;;15.90;8.00;;;;;;;;;;10439174;28;20271;-73
2021/01/08 08:08:08;;;;;;;15.43;7.53;;;;;;;;;;10432363;28;20216;-73
2021/01/08 08:13:12;;;;;;;16.17;8.23;;;;;;;;;;10405801;28;20194;-73
2021/01/08 08:18:16;;;;;;;10.43;5.07;;;;;;;;;;10402471;28;20273;-73
2021/01/08 08:23:18;;;;;;;15.67;7.87;;;;;;;;;;10421324;28;20201;-73
2021/01/08 08:28:21;;;;;;;16.80;7.93;;;;;;;;;;10418692;28;20213;-73
2021/01/08 08:33:24;;;;;;;14.10;7.63;;;;;;;;;;10422671;28;20244;-73
2021/01/08 08:38:25;;;;;;;14.30;7.47;;;;;;;;;;10427076;28;20711;-71
2021/01/08 08:43:27;;;;;;;8.50;3.80;;;;;;;;;;10443855;28;20203;-72
2021/01/08 08:48:29;;;;;;;15.80;8.03;;;;;;;;;;10438246;28;20219;-73
2021/01/08 08:53:32;;;;;;;14.17;6.77;;;;;;;;;;10436714;28;20194;-72
2021/01/08 08:58:43;;;;;;;15.33;7.30;;;;;;;;;;10421484;28;20209;-74
2021/01/08 09:03:45;;;;;;;14.33;7.67;;;;;;;;;;10428842;28;20208;-74
2021/01/08 09:08:53;;;;;;;14.17;7.83;;;;;;;;;;10430935;28;20209;-72
2021/01/08 09:13:56;;;;;;;11.57;5.50;;;;;;;;;;10421720;28;20585;-73
2021/01/08 09:19:03;;;;;;;10.83;5.53;;;;;;;;;;10428172;28;20649;-71
2021/01/08 09:24:05;;;;;;;9.70;4.37;;;;;;;;;;10422633;28;20256;-73
2021/01/08 09:29:07;;;;;;;5.97;2.80;;;;;;;;;;10430685;28;20251;-74
2021/01/08 09:34:10;;;;;;;12.40;5.23;;;;;;;;;;10439497;28;20246;-72
2021/01/08 09:39:13;;;;;;;11.20;4.90;;;;;;;;;;10427211;28;20217;-73
2021/01/08 09:44:15;;;;;;;14.53;7.70;;;;;;;;;;10434822;28;20276;-73
2021/01/08 09:49:17;;;;;;;19.07;6.67;;;;;;;;;;10440115;28;20262;-73
2021/01/08 09:54:19;;;;;;;11.33;5.73;;;;;;;;;;10433070;28;20682;-72
2021/01/08 09:59:21;;;;;;;15.20;6.80;;;;;;;;;;10424563;28;20251;-72
2021/01/08 10:04:28;;;;;;;11.13;5.60;;;;;;;;;;10424709;28;20207;-72
2021/01/08 10:09:48;;;;;;;9.73;4.90;;;;;;;;;;10435996;28;20739;-72
2021/01/08 10:14:58;;;;;;;14.47;7.17;;;;;;;;;;10430780;28;20229;-72
2021/01/08 10:20:04;;;;;;;9.87;5.10;;;;;;;;;;10436240;28;20221;-73
2021/01/08 10:25:20;;;;;;;13.00;6.50;;;;;;;;;;10433978;28;20197;-74
2021/01/08 10:30:39;;;;;;;12.73;5.83;;;;;;;;;;10433638;28;20542;-71
2021/01/08 10:35:48;;;;;;;11.60;5.57;;;;;;;;;;10413022;28;20233;-73
2021/01/08 10:40:50;;;;;;;8.80;4.63;;;;;;;;;;10409359;28;20222;-72
2021/01/08 10:45:53;;;;;;;11.47;6.07;;;;;;;;;;10437266;28;20235;-72
2021/01/08 10:50:56;;;;;;;8.83;3.70;;;;;;;;;;10407545;28;20680;-73
2021/01/08 10:55:58;;;;;;;8.73;4.90;;;;;;;;;;10432073;28;20220;-72
2021/01/08 11:00:59;;;;;;;11.43;6.07;;;;;;;;;;10431707;28;20703;-73
2021/01/08 11:06:03;;;;;;;11.87;6.77;;;;;;;;;;10435505;28;20342;-72
2021/01/08 11:11:05;;;;;;;11.13;6.13;;;;;;;;;;10421593;28;20194;-73
2021/01/08 11:16:06;;;;;;;11.33;6.50;;;;;;;;;;10432277;28;20671;-73
2021/01/08 11:21:09;;;;;;;11.27;5.93;;;;;;;;;;10429862;28;20742;-72
2021/01/08 11:26:10;;;;;;;12.30;6.97;;;;;;;;;;10418518;28;20268;-72
2021/01/08 11:31:12;;;;;;;9.93;5.93;;;;;;;;;;10432799;28;20730;-73
2021/01/08 11:36:17;;;;;;;7.67;4.13;;;;;;;;;;10426544;28;20264;-71
2021/01/08 11:41:19;;;;;;;11.27;6.30;;;;;;;;;;10434200;28;20209;-73
2021/01/08 11:46:22;;;;;;;11.40;5.30;;;;;;;;;;10402989;28;20221;-71
2021/01/08 11:51:24;;;;;;;10.17;5.50;;;;;;;;;;10420817;28;20625;-71
2021/01/08 11:56:26;;;;;;;10.90;5.80;;;;;;;;;;10416245;28;20321;-72
2021/01/08 12:01:28;;;;;;;10.23;5.47;;;;;;;;;;10437358;28;20205;-70
2021/01/08 12:06:31;;;;;;;11.30;6.07;;;;;;;;;;10428486;28;20318;-71
2021/01/08 12:11:34;;;;;;;8.33;4.20;;;;;;;;;;10436368;28;20208;-71
2021/01/08 12:16:36;;;;;;;11.23;5.73;;;;;;;;;;10425886;28;20206;-72
2021/01/08 12:21:43;;;;;;;11.10;5.43;;;;;;;;;;10429271;28;20228;-71
2021/01/08 12:26:44;;;;;;;7.00;3.43;;;;;;;;;;10424421;28;20774;-73
2021/01/08 12:31:46;;;;;;;10.50;4.80;;;;;;;;;;10420701;28;20201;-73
2021/01/08 12:36:49;;;;;;;12.03;5.40;;;;;;;;;;10415696;28;20319;-71
2021/01/08 12:41:51;;;;;;;9.90;4.80;;;;;;;;;;10430254;28;20645;-71
2021/01/08 12:46:56;;;;;;;11.43;4.47;;;;;;;;;;10437878;28;20683;-72
2021/01/08 12:51:58;;;;;;;12.43;5.97;;;;;;;;;;10413793;28;20257;-72
2021/01/08 12:57:00;;;;;;;10.37;5.73;;;;;;;;;;10429388;28;20296;-72
2021/01/08 13:02:04;;;;;;;11.50;4.80;;;;;;;;;;10436564;28;20206;-71
2021/01/08 13:07:07;;;;;;;10.27;4.90;;;;;;;;;;10436844;28;20225;-70
2021/01/08 13:12:08;;;;;;;10.17;5.07;;;;;;;;;;10430932;28;20219;-70
2021/01/08 13:17:10;;;;;;;9.50;4.47;;;;;;;;;;10431577;28;20287;-72
2021/01/08 13:22:13;;;;;;;7.70;3.33;;;;;;;;;;10421337;28;20204;-71
2021/01/08 13:27:15;;;;;;;12.13;5.37;;;;;;;;;;10439725;28;20263;-72
2021/01/08 13:32:17;;;;;;;9.77;4.70;;;;;;;;;;10428345;28;20201;-71
2021/01/08 13:37:20;;;;;;;11.00;4.93;;;;;;;;;;10427584;28;20561;-71
2021/01/08 13:42:21;;;;;;;6.40;2.87;;;;;;;;;;10433499;28;20226;-72
2021/01/08 13:47:26;;;;;;;9.00;3.80;;;;;;;;;;10435382;28;20210;-72
2021/01/08 13:52:29;;;;;;;11.43;5.10;;;;;;;;;;10417549;28;20240;-72
2021/01/08 13:57:30;;;;;;;10.87;5.23;;;;;;;;;;10431950;28;20735;-71
2021/01/08 14:02:33;;;;;;;10.47;4.57;;;;;;;;;;10409108;28;20694;-73
2021/01/08 14:07:36;;;;;;;9.33;4.37;;;;;;;;;;10432390;28;20596;-71
2021/01/08 14:12:38;;;;;;;7.83;3.53;;;;;;;;;;10424182;28;20186;-72
2021/01/08 14:17:40;;;;;;;7.17;3.10;;;;;;;;;;10424117;28;20794;-72
2021/01/08 14:22:48;;;;;;;7.57;3.30;;;;;;;;;;10423226;28;20202;-72
2021/01/08 14:27:49;;;;;;;7.17;2.97;;;;;;;;;;10433862;28;20216;-73
2021/01/08 14:32:52;;;;;;;9.87;4.67;;;;;;;;;;10409318;28;20641;-72
2021/01/08 14:37:54;;;;;;;11.07;4.73;;;;;;;;;;10430878;28;20295;-72
2021/01/08 14:42:56;;;;;;;11.83;6.07;;;;;;;;;;10436578;28;20291;-72
2021/01/08 14:48:13;;;;;;;10.60;5.80;;;;;;;;;;10440410;28;20224;-71
2021/01/08 14:53:15;;;;;;;10.67;5.37;;;;;;;;;;10433147;28;20199;-72
2021/01/08 14:58:17;;;;;;;10.70;5.03;;;;;;;;;;10409751;28;20221;-72
2021/01/08 15:03:18;;;;;;;11.03;4.87;;;;;;;;;;10419811;28;20207;-71
2021/01/08 15:08:21;;;;;;;10.53;4.50;;;;;;;;;;10401497;28;20221;-71
2021/01/08 15:13:23;;;;;;;10.37;4.50;;;;;;;;;;10433706;28;20193;-72
2021/01/08 15:18:24;;;;;;;8.43;3.87;;;;;;;;;;10411438;28;20279;-72
2021/01/08 15:23:27;;;;;;;5.70;2.33;;;;;;;;;;10429599;28;20225;-72
2021/01/08 15:28:29;;;;;;;7.37;3.20;;;;;;;;;;10435635;28;20241;-72
2021/01/08 15:33:30;;;;;;;9.50;4.63;;;;;;;;;;10420457;28;20194;-73
2021/01/08 15:38:35;;;;;;;10.07;4.53;;;;;;;;;;10422385;28;20244;-72
2021/01/08 15:43:36;;;;;;;10.83;5.10;;;;;;;;;;10426283;28;20193;-72
2021/01/08 15:48:38;;;;;;;6.47;3.23;;;;;;;;;;10439840;28;20659;-72
2021/01/08 15:53:40;;;;;;;10.63;4.80;;;;;;;;;;10432192;28;20276;-73
2021/01/08 15:58:42;;;;;;;9.57;4.20;;;;;;;;;;10414854;28;20237;-73
2021/01/08 16:03:44;;;;;;;2.83;1.10;;;;;;;;;;10427551;28;20194;-73
2021/01/08 16:08:47;;;;;;;11.60;5.03;;;;;;;;;;10402136;28;20241;-72
2021/01/08 16:13:49;;;;;;;8.73;4.43;;;;;;;;;;10436058;28;20277;-73
2021/01/08 16:18:50;;;;;;;8.97;4.00;;;;;;;;;;10413164;28;20307;-72
2021/01/08 16:23:53;;;;;;;8.63;3.90;;;;;;;;;;10429482;28;20197;-70
2021/01/08 16:28:54;;;;;;;9.83;4.50;;;;;;;;;;10430636;28;20217;-72
2021/01/08 16:33:56;;;;;;;11.67;6.00;;;;;;;;;;10428955;28;20209;-72
2021/01/08 16:38:58;;;;;;;9.27;4.53;;;;;;;;;;10410748;28;20312;-72
2021/01/08 16:44:00;;;;;;;11.67;5.37;;;;;;;;;;10429442;28;20613;-71
2021/01/08 16:49:04;;;;;;;9.80;4.47;;;;;;;;;;10414353;28;20282;-73
2021/01/08 16:54:07;;;;;;;7.70;3.33;;;;;;;;;;10416106;28;20284;-72
2021/01/08 16:59:08;;;;;;;9.00;4.10;;;;;;;;;;10399138;28;20289;-71
2021/01/08 17:04:10;;;;;;;11.23;4.53;;;;;;;;;;10423043;28;20197;-71
2021/01/08 17:09:13;;;;;;;8.83;4.27;;;;;;;;;;10423830;28;20237;-71
2021/01/08 17:14:14;;;;;;;12.13;5.20;;;;;;;;;;10420169;28;20251;-70
2021/01/08 17:19:16;;;;;;;12.83;5.43;;;;;;;;;;10421203;28;20204;-71
2021/01/08 17:24:18;;;;;;;9.63;4.53;;;;;;;;;;10419248;28;20197;-71
2021/01/08 17:29:20;;;;;;;12.27;6.00;;;;;;;;;;10420064;28;20256;-72
2021/01/08 17:34:21;;;;;;;11.03;5.27;;;;;;;;;;10416463;28;20193;-71
2021/01/08 17:39:24;;;;;;;10.53;5.83;;;;;;;;;;10424339;28;20304;-70
2021/01/08 17:44:26;;;;;;;13.23;6.10;;;;;;;;;;10422153;28;20344;-71
2021/01/08 17:49:27;;;;;;;11.20;5.43;;;;;;;;;;10398653;28;20304;-70
2021/01/08 17:54:29;;;;;;;12.70;5.80;;;;;;;;;;10421643;28;20196;-71
2021/01/08 17:59:32;;;;;;;11.20;5.20;;;;;;;;;;10413704;28;20264;-71
2021/01/08 18:04:34;;;;;;;12.20;5.73;;;;;;;;;;10426502;28;20196;-71
2021/01/08 18:09:36;;;;;;;10.80;5.77;;;;;;;;;;10423605;28;20975;-71
2021/01/08 18:14:38;;;;;;;9.73;4.37;;;;;;;;;;10414837;28;20277;-71
2021/01/08 18:19:39;;;;;;;13.63;6.83;;;;;;;;;;10417749;28;20214;-72
2021/01/08 18:24:42;;;;;;;12.03;6.23;;;;;;;;;;10395944;28;20201;-71
2021/01/08 18:29:44;;;;;;;12.57;5.53;;;;;;;;;;10420518;28;20300;-72
2021/01/08 18:34:46;;;;;;;12.33;5.60;;;;;;;;;;10412576;28;20197;-71
2021/01/08 18:39:49;;;;;;;13.83;6.87;;;;;;;;;;10419552;28;20230;-71
2021/01/08 18:44:51;;;;;;;14.67;7.13;;;;;;;;;;10411659;28;20308;-71
2021/01/08 18:49:52;;;;;;;14.50;6.27;;;;;;;;;;10419005;28;20377;-71
2021/01/08 18:54:54;;;;;;;13.73;7.03;;;;;;;;;;10423107;28;20208;-71
2021/01/08 18:59:56;;;;;;;13.87;7.27;;;;;;;;;;10423314;28;20208;-72
2021/01/08 19:04:58;;;;;;;14.30;6.43;;;;;;;;;;10423062;28;20712;-71
2021/01/08 19:10:00;;;;;;;12.60;6.20;;;;;;;;;;10425012;28;20228;-71
2021/01/08 19:15:06;;;;;;;13.20;6.73;;;;;;;;;;10420870;28;20185;-72
2021/01/08 19:20:09;;;;;;;14.03;6.83;;;;;;;;;;10401305;28;20613;-71
2021/01/08 19:25:12;;;;;;;13.80;6.63;;;;;;;;;;10414012;28;20201;-71
2021/01/08 19:30:14;;;;;;;14.70;6.87;;;;;;;;;;10425610;28;20208;-70
2021/01/08 19:35:16;;;;;;;13.93;5.60;;;;;;;;;;10424127;28;20650;-71
2021/01/08 19:40:18;;;;;;;13.23;6.90;;;;;;;;;;10420851;28;20217;-70
2021/01/08 19:45:23;;;;;;;14.73;7.53;;;;;;;;;;10429470;28;20248;-71
2021/01/08 19:50:25;;;;;;;14.97;7.40;;;;;;;;;;10422558;28;20228;-70
2021/01/08 19:55:27;;;;;;;16.17;8.00;;;;;;;;;;10404153;28;20240;-71
2021/01/08 20:00:32;;;;;;;16.07;7.70;;;;;;;;;;10426209;28;20437;-72
2021/01/08 20:05:34;;;;;;;11.03;4.10;;;;;;;;;;10412290;28;20303;-72
2021/01/08 20:10:37;;;;;;;9.10;3.77;;;;;;;;;;10425813;28;20217;-72
2021/01/08 20:15:38;;;;;;;15.63;7.23;;;;;;;;;;10440205;28;20629;-71
2021/01/08 20:20:40;;;;;;;15.30;8.20;;;;;;;;;;10429011;28;20607;-74
2021/01/08 20:25:42;;;;;;;16.47;8.00;;;;;;;;;;10409658;28;20635;-71
2021/01/08 20:30:45;;;;;;;15.23;8.27;;;;;;;;;;10407156;28;20202;-72
2021/01/08 20:35:46;;;;;;;14.33;7.90;;;;;;;;;;10430033;28;20249;-71
2021/01/08 20:40:49;;;;;;;16.63;8.30;;;;;;;;;;10409543;28;20298;-72
2021/01/08 20:45:54;;;;;;;14.77;7.67;;;;;;;;;;10412016;28;20583;-71
2021/01/08 20:50:58;;;;;;;15.50;8.13;;;;;;;;;;10412892;28;20237;-73
2021/01/08 20:56:04;;;;;;;16.13;8.20;;;;;;;;;;10436588;28;20271;-71
2021/01/08 21:01:08;;;;;;;15.07;7.73;;;;;;;;;;10419954;28;20213;-72
2021/01/08 21:06:09;;;;;;;17.02;10.80;;;;;;;;;;10434601;28;20479;-72
2021/01/08 21:11:12;;;;;;;16.87;8.77;;;;;;;;;;10435687;28;20192;-73
2021/01/08 21:16:14;;;;;;;16.70;8.40;;;;;;;;;;10437051;28;20267;-72
2021/01/08 21:21:16;;;;;;;16.43;6.70;;;;;;;;;;10427822;28;20667;-72
2021/01/08 21:26:19;;;;;;;16.80;8.33;;;;;;;;;;10424782;28;20224;-72
2021/01/08 21:31:21;;;;;;;14.53;6.70;;;;;;;;;;10441637;28;20200;-71
2021/01/08 21:36:31;;;;;;;17.57;9.60;;;;;;;;;;10438833;28;20224;-72
2021/01/08 21:41:33;;;;;;;15.07;7.53;;;;;;;;;;10443956;28;20668;-72
2021/01/08 21:46:39;;;;;;;17.97;8.87;;;;;;;;;;10437981;28;20252;-73
2021/01/08 21:51:45;;;;;;;16.77;9.53;;;;;;;;;;10440196;28;20189;-72
2021/01/08 21:56:48;;;;;;;17.47;8.43;;;;;;;;;;10411162;28;20272;-71
2021/01/08 22:01:50;;;;;;;16.83;8.87;;;;;;;;;;10440283;28;20700;-71
2021/01/08 22:06:52;;;;;;;13.37;6.47;;;;;;;;;;10427082;28;20308;-72
2021/01/08 22:11:54;;;;;;;17.37;8.93;;;;;;;;;;10417066;28;20194;-71
2021/01/08 22:16:56;;;;;;;16.20;8.37;;;;;;;;;;10433159;28;20652;-73
2021/01/08 22:21:57;;;;;;;17.92;11.77;;;;;;;;;;10438657;28;20453;-72
2021/01/08 22:27:00;;;;;;;16.40;9.13;;;;;;;;;;10433295;28;20209;-72
2021/01/08 22:32:07;;;;;;;17.13;8.40;;;;;;;;;;10444164;28;20280;-73
2021/01/08 22:37:08;;;;;;;18.23;7.77;;;;;;;;;;10427213;28;21840;-72
2021/01/08 22:42:12;;;;;;;15.27;7.03;;;;;;;;;;10442188;28;20224;-72
2021/01/08 22:47:13;;;;;;;14.93;7.70;;;;;;;;;;10408373;28;20300;-72
2021/01/08 22:52:15;;;;;;;13.93;7.27;;;;;;;;;;10440631;28;21098;-73
2021/01/08 22:57:17;;;;;;;17.00;8.60;;;;;;;;;;10431714;28;20294;-72
2021/01/08 23:02:19;;;;;;;10.60;4.50;;;;;;;;;;10434585;28;20236;-72
2021/01/08 23:07:21;;;;;;;15.97;7.77;;;;;;;;;;10436423;28;20289;-75
2021/01/08 23:12:24;;;;;;;15.70;8.80;;;;;;;;;;10420429;28;20197;-72
2021/01/08 23:17:26;;;;;;;15.47;8.57;;;;;;;;;;10426397;28;20213;-72
2021/01/08 23:22:28;;;;;;;18.47;8.87;;;;;;;;;;10424362;28;20701;-73
2021/01/08 23:27:30;;;;;;;18.47;8.53;;;;;;;;;;10425372;28;20213;-72
2021/01/08 23:32:32;;;;;;;18.13;8.40;;;;;;;;;;10426010;28;20247;-72
2021/01/08 23:37:38;;;;;;;18.03;8.70;;;;;;;;;;10404111;28;20237;-71
2021/01/08 23:42:41;;;;;;;14.40;7.20;;;;;;;;;;10419306;28;20237;-70
2021/01/08 23:47:43;;;;;;;15.93;8.23;;;;;;;;;;10429052;28;20224;-71
2021/01/08 23:52:48;;;;;;;16.13;8.43;;;;;;;;;;10430967;28;20196;-71
2021/01/08 23:57:50;;;;;;;16.53;8.23;;;;;;;;;;10433102;28;20244;-72
